sensor_id;sensor_type;location;lat;lon;timestamp;P1;durP1;ratioP1;P2;durP2;ratioP2
1567;SDS011;777;47.156;8.326;2023-06-26T00:01:31;8.82;;;7.93;;
1567;SDS011;777;47.156;8.326;2023-06-26T00:03:58;9.20;;;8.00;;
1567;SDS011;777;47.156;8.326;2023-06-26T00:06:26;10.43;;;8.57;;
1567;SDS011;777;47.156;8.326;2023-06-26T00:08:53;9.90;;;8.90;;
1567;SDS011;777;47.156;8.326;2023-06-26T00:11:22;10.40;;;9.40;;
1567;SDS011;777;47.156;8.326;2023-06-26T00:13:50;9.55;;;8.65;;
1567;SDS011;777;47.156;8.326;2023-06-26T00:16:17;9.88;;;8.88;;
1567;SDS011;777;47.156;8.326;2023-06-26T00:18:44;9.63;;;8.70;;
1567;SDS011;777;47.156;8.326;2023-06-26T00:21:11;9.15;;;8.25;;
1567;SDS011;777;47.156;8.326;2023-06-26T00:23:38;10.25;;;9.25;;
1567;SDS011;777;47.156;8.326;2023-06-26T00:26:05;10.50;;;8.90;;
1567;SDS011;777;47.156;8.326;2023-06-26T00:28:33;10.68;;;8.93;;
1567;SDS011;777;47.156;8.326;2023-06-26T00:31:00;10.13;;;9.13;;
1567;SDS011;777;47.156;8.326;2023-06-26T00:33:28;10.10;;;9.02;;
1567;SDS011;777;47.156;8.326;2023-06-26T00:35:56;10.50;;;8.93;;
1567;SDS011;777;47.156;8.326;2023-06-26T00:38:23;10.60;;;9.50;;
1567;SDS011;777;47.156;8.326;2023-06-26T00:40:50;8.88;;;8.07;;
1567;SDS011;777;47.156;8.326;2023-06-26T00:43:17;10.00;;;8.98;;
1567;SDS011;777;47.156;8.326;2023-06-26T00:45:45;10.77;;;9.77;;
1567;SDS011;777;47.156;8.326;2023-06-26T00:48:13;9.45;;;8.55;;
1567;SDS011;777;47.156;8.326;2023-06-26T00:50:40;9.73;;;8.65;;
1567;SDS011;777;47.156;8.326;2023-06-26T00:53:09;8.95;;;8.05;;
1567;SDS011;777;47.156;8.326;2023-06-26T00:55:37;9.23;;;8.02;;
1567;SDS011;777;47.156;8.326;2023-06-26T00:58:04;10.27;;;9.13;;
1567;SDS011;777;47.156;8.326;2023-06-26T01:00:31;9.98;;;8.50;;
1567;SDS011;777;47.156;8.326;2023-06-26T01:02:59;10.13;;;8.68;;
1567;SDS011;777;47.156;8.326;2023-06-26T01:05:26;9.82;;;8.82;;
1567;SDS011;777;47.156;8.326;2023-06-26T01:07:54;10.02;;;9.02;;
1567;SDS011;777;47.156;8.326;2023-06-26T01:10:24;9.50;;;8.60;;
1567;SDS011;777;47.156;8.326;2023-06-26T01:12:52;10.18;;;8.98;;
1567;SDS011;777;47.156;8.326;2023-06-26T01:15:19;10.00;;;8.48;;
1567;SDS011;777;47.156;8.326;2023-06-26T01:17:50;9.73;;;8.73;;
1567;SDS011;777;47.156;8.326;2023-06-26T01:20:19;10.48;;;9.38;;
1567;SDS011;777;47.156;8.326;2023-06-26T01:22:48;10.02;;;9.02;;
1567;SDS011;777;47.156;8.326;2023-06-26T01:25:28;9.90;;;8.88;;
1567;SDS011;777;47.156;8.326;2023-06-26T01:28:05;11.13;;;10.02;;
1567;SDS011;777;47.156;8.326;2023-06-26T01:30:33;11.68;;;9.68;;
1567;SDS011;777;47.156;8.326;2023-06-26T01:33:03;13.50;;;9.95;;
1567;SDS011;777;47.156;8.326;2023-06-26T01:35:30;9.68;;;8.68;;
1567;SDS011;777;47.156;8.326;2023-06-26T01:38:11;12.75;;;10.52;;
1567;SDS011;777;47.156;8.326;2023-06-26T01:40:39;11.30;;;9.82;;
1567;SDS011;777;47.156;8.326;2023-06-26T01:43:10;13.73;;;10.82;;
1567;SDS011;777;47.156;8.326;2023-06-26T01:45:41;11.70;;;10.55;;
1567;SDS011;777;47.156;8.326;2023-06-26T01:48:11;11.38;;;10.27;;
1567;SDS011;777;47.156;8.326;2023-06-26T01:50:40;11.18;;;10.07;;
1567;SDS011;777;47.156;8.326;2023-06-26T01:53:11;11.48;;;10.32;;
1567;SDS011;777;47.156;8.326;2023-06-26T01:55:44;10.38;;;9.32;;
1567;SDS011;777;47.156;8.326;2023-06-26T01:58:18;12.05;;;9.55;;
1567;SDS011;777;47.156;8.326;2023-06-26T02:00:48;14.65;;;10.45;;
1567;SDS011;777;47.156;8.326;2023-06-26T02:03:15;13.32;;;9.77;;
1567;SDS011;777;47.156;8.326;2023-06-26T02:05:43;12.32;;;10.50;;
1567;SDS011;777;47.156;8.326;2023-06-26T02:08:13;12.43;;;10.20;;
1567;SDS011;777;47.156;8.326;2023-06-26T02:10:47;12.02;;;10.50;;
1567;SDS011;777;47.156;8.326;2023-06-26T02:13:15;12.43;;;11.02;;
1567;SDS011;777;47.156;8.326;2023-06-26T02:15:44;12.48;;;11.27;;
1567;SDS011;777;47.156;8.326;2023-06-26T02:18:11;11.07;;;9.98;;
1567;SDS011;777;47.156;8.326;2023-06-26T02:20:37;12.88;;;10.93;;
1567;SDS011;777;47.156;8.326;2023-06-26T02:23:05;12.88;;;11.55;;
1567;SDS011;777;47.156;8.326;2023-06-26T02:25:34;11.90;;;10.68;;
1567;SDS011;777;47.156;8.326;2023-06-26T02:28:01;11.65;;;10.45;;
1567;SDS011;777;47.156;8.326;2023-06-26T02:30:28;12.07;;;10.88;;
1567;SDS011;777;47.156;8.326;2023-06-26T02:33:02;12.38;;;11.15;;
1567;SDS011;777;47.156;8.326;2023-06-26T02:35:33;12.13;;;10.32;;
1567;SDS011;777;47.156;8.326;2023-06-26T02:38:01;11.73;;;10.63;;
1567;SDS011;777;47.156;8.326;2023-06-26T02:40:28;13.13;;;11.75;;
1567;SDS011;777;47.156;8.326;2023-06-26T02:42:55;12.13;;;10.80;;
1567;SDS011;777;47.156;8.326;2023-06-26T02:45:22;13.85;;;10.65;;
1567;SDS011;777;47.156;8.326;2023-06-26T02:47:49;12.23;;;11.02;;
1567;SDS011;777;47.156;8.326;2023-06-26T02:50:18;11.68;;;10.52;;
1567;SDS011;777;47.156;8.326;2023-06-26T02:53:05;16.65;;;10.77;;
1567;SDS011;777;47.156;8.326;2023-06-26T02:55:33;11.77;;;10.65;;
1567;SDS011;777;47.156;8.326;2023-06-26T02:58:01;13.60;;;10.88;;
1567;SDS011;777;47.156;8.326;2023-06-26T03:00:28;11.35;;;10.15;;
1567;SDS011;777;47.156;8.326;2023-06-26T03:02:56;11.82;;;10.25;;
1567;SDS011;777;47.156;8.326;2023-06-26T03:05:25;11.25;;;10.07;;
1567;SDS011;777;47.156;8.326;2023-06-26T03:07:52;14.48;;;10.93;;
1567;SDS011;777;47.156;8.326;2023-06-26T03:10:19;12.45;;;11.15;;
1567;SDS011;777;47.156;8.326;2023-06-26T03:12:47;11.63;;;10.43;;
1567;SDS011;777;47.156;8.326;2023-06-26T03:15:16;11.95;;;10.77;;
1567;SDS011;777;47.156;8.326;2023-06-26T03:17:44;15.50;;;12.07;;
1567;SDS011;777;47.156;8.326;2023-06-26T03:20:17;11.40;;;10.30;;
1567;SDS011;777;47.156;8.326;2023-06-26T03:22:54;12.70;;;10.68;;
1567;SDS011;777;47.156;8.326;2023-06-26T03:25:22;12.35;;;11.15;;
1567;SDS011;777;47.156;8.326;2023-06-26T03:27:56;12.70;;;10.43;;
1567;SDS011;777;47.156;8.326;2023-06-26T03:30:24;12.48;;;11.27;;
1567;SDS011;777;47.156;8.326;2023-06-26T03:32:54;12.30;;;10.77;;
1567;SDS011;777;47.156;8.326;2023-06-26T03:35:21;12.13;;;10.95;;
1567;SDS011;777;47.156;8.326;2023-06-26T03:37:49;11.77;;;10.63;;
1567;SDS011;777;47.156;8.326;2023-06-26T03:40:17;12.80;;;10.50;;
1567;SDS011;777;47.156;8.326;2023-06-26T03:42:44;16.65;;;11.35;;
1567;SDS011;777;47.156;8.326;2023-06-26T03:45:11;12.10;;;10.10;;
1567;SDS011;777;47.156;8.326;2023-06-26T03:47:40;12.13;;;10.98;;
1567;SDS011;777;47.156;8.326;2023-06-26T03:50:07;12.00;;;10.48;;
1567;SDS011;777;47.156;8.326;2023-06-26T03:52:35;12.32;;;10.52;;
1567;SDS011;777;47.156;8.326;2023-06-26T03:55:02;11.60;;;10.02;;
1567;SDS011;777;47.156;8.326;2023-06-26T03:57:31;12.00;;;10.02;;
1567;SDS011;777;47.156;8.326;2023-06-26T03:59:58;11.00;;;9.90;;
1567;SDS011;777;47.156;8.326;2023-06-26T04:02:25;9.77;;;8.88;;
1567;SDS011;777;47.156;8.326;2023-06-26T04:04:52;11.27;;;9.77;;
1567;SDS011;777;47.156;8.326;2023-06-26T04:07:20;12.55;;;9.18;;
1567;SDS011;777;47.156;8.326;2023-06-26T04:09:47;9.50;;;8.60;;
1567;SDS011;777;47.156;8.326;2023-06-26T04:12:14;9.98;;;8.88;;
1567;SDS011;777;47.156;8.326;2023-06-26T04:14:42;9.45;;;8.10;;
1567;SDS011;777;47.156;8.326;2023-06-26T04:17:09;9.48;;;8.57;;
1567;SDS011;777;47.156;8.326;2023-06-26T04:19:36;9.60;;;8.60;;
1567;SDS011;777;47.156;8.326;2023-06-26T04:22:03;8.70;;;7.88;;
1567;SDS011;777;47.156;8.326;2023-06-26T04:24:30;10.23;;;7.95;;
1567;SDS011;777;47.156;8.326;2023-06-26T04:26:57;9.48;;;7.82;;
1567;SDS011;777;47.156;8.326;2023-06-26T04:29:25;9.13;;;7.60;;
1567;SDS011;777;47.156;8.326;2023-06-26T04:31:54;9.93;;;7.80;;
1567;SDS011;777;47.156;8.326;2023-06-26T04:34:23;8.85;;;7.22;;
1567;SDS011;777;47.156;8.326;2023-06-26T04:36:50;10.00;;;7.95;;
1567;SDS011;777;47.156;8.326;2023-06-26T04:39:17;10.35;;;7.43;;
1567;SDS011;777;47.156;8.326;2023-06-26T04:41:44;9.77;;;7.40;;
1567;SDS011;777;47.156;8.326;2023-06-26T04:44:11;10.80;;;6.75;;
1567;SDS011;777;47.156;8.326;2023-06-26T04:46:38;9.00;;;6.82;;
1567;SDS011;777;47.156;8.326;2023-06-26T04:49:07;8.82;;;6.65;;
1567;SDS011;777;47.156;8.326;2023-06-26T04:51:34;8.30;;;6.60;;
1567;SDS011;777;47.156;8.326;2023-06-26T04:54:05;7.68;;;6.97;;
1567;SDS011;777;47.156;8.326;2023-06-26T04:56:32;7.45;;;6.47;;
1567;SDS011;777;47.156;8.326;2023-06-26T04:59:00;7.70;;;6.90;;
1567;SDS011;777;47.156;8.326;2023-06-26T05:01:27;7.97;;;7.18;;
1567;SDS011;777;47.156;8.326;2023-06-26T05:03:54;10.27;;;7.78;;
1567;SDS011;777;47.156;8.326;2023-06-26T05:06:23;8.70;;;7.38;;
1567;SDS011;777;47.156;8.326;2023-06-26T05:08:50;8.02;;;7.22;;
1567;SDS011;777;47.156;8.326;2023-06-26T05:11:17;7.85;;;7.05;;
1567;SDS011;777;47.156;8.326;2023-06-26T05:13:44;8.55;;;7.70;;
1567;SDS011;777;47.156;8.326;2023-06-26T05:16:11;8.73;;;7.82;;
1567;SDS011;777;47.156;8.326;2023-06-26T05:18:38;10.50;;;7.97;;
1567;SDS011;777;47.156;8.326;2023-06-26T05:21:06;10.35;;;7.68;;
1567;SDS011;777;47.156;8.326;2023-06-26T05:23:34;8.57;;;7.78;;
1567;SDS011;777;47.156;8.326;2023-06-26T05:26:02;10.73;;;8.43;;
1567;SDS011;777;47.156;8.326;2023-06-26T05:28:29;8.50;;;7.70;;
1567;SDS011;777;47.156;8.326;2023-06-26T05:30:57;8.98;;;7.88;;
1567;SDS011;777;47.156;8.326;2023-06-26T05:33:25;8.57;;;7.78;;
1567;SDS011;777;47.156;8.326;2023-06-26T05:35:53;9.60;;;7.88;;
1567;SDS011;777;47.156;8.326;2023-06-26T05:38:21;8.27;;;7.47;;
1567;SDS011;777;47.156;8.326;2023-06-26T05:40:50;8.93;;;7.82;;
1567;SDS011;777;47.156;8.326;2023-06-26T05:43:18;8.15;;;7.45;;
1567;SDS011;777;47.156;8.326;2023-06-26T05:45:46;8.90;;;7.40;;
1567;SDS011;777;47.156;8.326;2023-06-26T05:48:14;10.35;;;7.18;;
1567;SDS011;777;47.156;8.326;2023-06-26T05:50:41;8.30;;;7.50;;
1567;SDS011;777;47.156;8.326;2023-06-26T05:53:10;10.48;;;7.63;;
1567;SDS011;777;47.156;8.326;2023-06-26T05:55:38;8.50;;;7.63;;
1567;SDS011;777;47.156;8.326;2023-06-26T05:58:09;8.02;;;6.95;;
1567;SDS011;777;47.156;8.326;2023-06-26T06:00:37;9.10;;;7.65;;
1567;SDS011;777;47.156;8.326;2023-06-26T06:03:04;9.65;;;7.40;;
1567;SDS011;777;47.156;8.326;2023-06-26T06:05:31;8.13;;;7.20;;
1567;SDS011;777;47.156;8.326;2023-06-26T06:07:58;8.00;;;7.20;;
1567;SDS011;777;47.156;8.326;2023-06-26T06:10:25;12.45;;;7.22;;
1567;SDS011;777;47.156;8.326;2023-06-26T06:12:52;7.50;;;6.80;;
1567;SDS011;777;47.156;8.326;2023-06-26T06:15:21;8.20;;;7.18;;
1567;SDS011;777;47.156;8.326;2023-06-26T06:17:48;9.07;;;6.97;;
1567;SDS011;777;47.156;8.326;2023-06-26T06:20:15;7.78;;;6.75;;
1567;SDS011;777;47.156;8.326;2023-06-26T06:22:44;10.75;;;6.68;;
1567;SDS011;777;47.156;8.326;2023-06-26T06:25:13;8.52;;;6.78;;
1567;SDS011;777;47.156;8.326;2023-06-26T06:27:40;8.13;;;6.80;;
1567;SDS011;777;47.156;8.326;2023-06-26T06:30:08;9.57;;;7.35;;
1567;SDS011;777;47.156;8.326;2023-06-26T06:32:39;7.88;;;7.13;;
1567;SDS011;777;47.156;8.326;2023-06-26T06:35:06;7.82;;;7.07;;
1567;SDS011;777;47.156;8.326;2023-06-26T06:37:35;7.85;;;7.10;;
1567;SDS011;777;47.156;8.326;2023-06-26T06:40:03;8.77;;;7.40;;
1567;SDS011;777;47.156;8.326;2023-06-26T06:42:32;10.10;;;7.57;;
1567;SDS011;777;47.156;8.326;2023-06-26T06:44:59;8.45;;;7.57;;
1567;SDS011;777;47.156;8.326;2023-06-26T06:47:27;8.05;;;7.35;;
1567;SDS011;777;47.156;8.326;2023-06-26T06:49:55;8.90;;;7.45;;
1567;SDS011;777;47.156;8.326;2023-06-26T06:52:22;8.23;;;7.40;;
1567;SDS011;777;47.156;8.326;2023-06-26T06:54:53;8.73;;;7.90;;
1567;SDS011;777;47.156;8.326;2023-06-26T06:57:21;10.13;;;7.00;;
1567;SDS011;777;47.156;8.326;2023-06-26T06:59:48;10.07;;;6.82;;
1567;SDS011;777;47.156;8.326;2023-06-26T07:02:15;8.43;;;7.30;;
1567;SDS011;777;47.156;8.326;2023-06-26T07:04:43;9.07;;;6.88;;
1567;SDS011;777;47.156;8.326;2023-06-26T07:07:12;10.73;;;7.40;;
1567;SDS011;777;47.156;8.326;2023-06-26T07:09:39;7.15;;;6.45;;
1567;SDS011;777;47.156;8.326;2023-06-26T07:12:07;8.00;;;6.03;;
1567;SDS011;777;47.156;8.326;2023-06-26T07:14:34;6.32;;;5.72;;
1567;SDS011;777;47.156;8.326;2023-06-26T07:17:01;8.48;;;6.25;;
1567;SDS011;777;47.156;8.326;2023-06-26T07:19:28;7.05;;;6.20;;
1567;SDS011;777;47.156;8.326;2023-06-26T07:21:55;7.35;;;6.65;;
1567;SDS011;777;47.156;8.326;2023-06-26T07:24:23;6.97;;;5.82;;
1567;SDS011;777;47.156;8.326;2023-06-26T07:26:51;8.35;;;6.97;;
1567;SDS011;777;47.156;8.326;2023-06-26T07:29:18;11.15;;;6.30;;
1567;SDS011;777;47.156;8.326;2023-06-26T07:31:45;7.00;;;6.10;;
1567;SDS011;777;47.156;8.326;2023-06-26T07:34:13;10.27;;;6.45;;
1567;SDS011;777;47.156;8.326;2023-06-26T07:36:40;8.63;;;6.47;;
1567;SDS011;777;47.156;8.326;2023-06-26T07:39:07;8.50;;;6.32;;
1567;SDS011;777;47.156;8.326;2023-06-26T07:41:35;7.18;;;5.90;;
1567;SDS011;777;47.156;8.326;2023-06-26T07:44:02;8.50;;;6.07;;
1567;SDS011;777;47.156;8.326;2023-06-26T07:46:29;8.13;;;7.07;;
1567;SDS011;777;47.156;8.326;2023-06-26T07:48:56;9.98;;;6.78;;
1567;SDS011;777;47.156;8.326;2023-06-26T07:51:23;9.25;;;6.55;;
1567;SDS011;777;47.156;8.326;2023-06-26T07:53:50;12.10;;;6.60;;
1567;SDS011;777;47.156;8.326;2023-06-26T07:56:17;7.07;;;6.38;;
1567;SDS011;777;47.156;8.326;2023-06-26T07:58:46;8.60;;;7.00;;
1567;SDS011;777;47.156;8.326;2023-06-26T08:01:13;8.75;;;6.85;;
1567;SDS011;777;47.156;8.326;2023-06-26T08:03:40;9.18;;;6.78;;
1567;SDS011;777;47.156;8.326;2023-06-26T08:06:07;8.77;;;6.05;;
1567;SDS011;777;47.156;8.326;2023-06-26T08:08:35;7.80;;;6.35;;
1567;SDS011;777;47.156;8.326;2023-06-26T08:11:02;6.72;;;5.68;;
1567;SDS011;777;47.156;8.326;2023-06-26T08:13:29;8.00;;;5.82;;
1567;SDS011;777;47.156;8.326;2023-06-26T08:15:58;6.60;;;5.50;;
1567;SDS011;777;47.156;8.326;2023-06-26T08:18:25;5.60;;;5.10;;
1567;SDS011;777;47.156;8.326;2023-06-26T08:20:52;8.48;;;5.30;;
1567;SDS011;777;47.156;8.326;2023-06-26T08:23:19;6.05;;;5.10;;
1567;SDS011;777;47.156;8.326;2023-06-26T08:25:47;8.20;;;5.70;;
1567;SDS011;777;47.156;8.326;2023-06-26T08:28:14;6.00;;;5.40;;
1567;SDS011;777;47.156;8.326;2023-06-26T08:30:41;7.95;;;5.55;;
1567;SDS011;777;47.156;8.326;2023-06-26T08:33:09;7.32;;;5.18;;
1567;SDS011;777;47.156;8.326;2023-06-26T08:35:37;6.15;;;5.18;;
1567;SDS011;777;47.156;8.326;2023-06-26T08:38:04;6.10;;;5.30;;
1567;SDS011;777;47.156;8.326;2023-06-26T08:40:31;5.63;;;5.00;;
1567;SDS011;777;47.156;8.326;2023-06-26T08:42:58;6.07;;;5.38;;
1567;SDS011;777;47.156;8.326;2023-06-26T08:45:25;5.53;;;5.03;;
1567;SDS011;777;47.156;8.326;2023-06-26T08:47:53;4.85;;;4.45;;
1567;SDS011;777;47.156;8.326;2023-06-26T08:50:26;4.60;;;4.20;;
1567;SDS011;777;47.156;8.326;2023-06-26T08:52:58;5.85;;;4.85;;
1567;SDS011;777;47.156;8.326;2023-06-26T08:55:33;5.88;;;5.25;;
1567;SDS011;777;47.156;8.326;2023-06-26T08:58:04;8.88;;;4.95;;
1567;SDS011;777;47.156;8.326;2023-06-26T09:00:31;6.03;;;5.00;;
1567;SDS011;777;47.156;8.326;2023-06-26T09:02:59;5.82;;;4.93;;
1567;SDS011;777;47.156;8.326;2023-06-26T09:05:28;6.35;;;4.47;;
1567;SDS011;777;47.156;8.326;2023-06-26T09:07:56;5.75;;;4.85;;
1567;SDS011;777;47.156;8.326;2023-06-26T09:10:23;6.13;;;5.00;;
1567;SDS011;777;47.156;8.326;2023-06-26T09:12:51;5.90;;;5.13;;
1567;SDS011;777;47.156;8.326;2023-06-26T09:15:22;5.57;;;4.70;;
1567;SDS011;777;47.156;8.326;2023-06-26T09:17:49;8.88;;;5.00;;
1567;SDS011;777;47.156;8.326;2023-06-26T09:20:21;6.10;;;4.82;;
1567;SDS011;777;47.156;8.326;2023-06-26T09:22:50;7.63;;;4.90;;
1567;SDS011;777;47.156;8.326;2023-06-26T09:25:17;6.22;;;4.90;;
1567;SDS011;777;47.156;8.326;2023-06-26T09:27:47;6.05;;;4.53;;
1567;SDS011;777;47.156;8.326;2023-06-26T09:30:16;6.50;;;4.68;;
1567;SDS011;777;47.156;8.326;2023-06-26T09:32:44;5.78;;;4.80;;
1567;SDS011;777;47.156;8.326;2023-06-26T09:35:11;4.70;;;4.28;;
1567;SDS011;777;47.156;8.326;2023-06-26T09:37:39;8.32;;;4.53;;
1567;SDS011;777;47.156;8.326;2023-06-26T09:40:08;7.18;;;5.00;;
1567;SDS011;777;47.156;8.326;2023-06-26T09:42:35;7.40;;;4.70;;
1567;SDS011;777;47.156;8.326;2023-06-26T09:45:03;4.88;;;4.43;;
1567;SDS011;777;47.156;8.326;2023-06-26T09:47:30;4.63;;;4.22;;
1567;SDS011;777;47.156;8.326;2023-06-26T09:49:58;5.80;;;4.18;;
1567;SDS011;777;47.156;8.326;2023-06-26T09:52:26;4.55;;;4.15;;
1567;SDS011;777;47.156;8.326;2023-06-26T09:55:08;5.10;;;4.00;;
1567;SDS011;777;47.156;8.326;2023-06-26T09:57:35;4.85;;;4.32;;
1567;SDS011;777;47.156;8.326;2023-06-26T10:00:02;6.63;;;4.35;;
1567;SDS011;777;47.156;8.326;2023-06-26T10:02:37;5.13;;;4.55;;
1567;SDS011;777;47.156;8.326;2023-06-26T10:05:05;6.53;;;4.78;;
1567;SDS011;777;47.156;8.326;2023-06-26T10:07:32;4.55;;;4.15;;
1567;SDS011;777;47.156;8.326;2023-06-26T10:10:00;4.85;;;4.30;;
1567;SDS011;777;47.156;8.326;2023-06-26T10:12:31;6.45;;;4.50;;
1567;SDS011;777;47.156;8.326;2023-06-26T10:14:58;5.00;;;4.22;;
1567;SDS011;777;47.156;8.326;2023-06-26T10:17:30;4.70;;;4.30;;
1567;SDS011;777;47.156;8.326;2023-06-26T10:20:01;4.88;;;4.00;;
1567;SDS011;777;47.156;8.326;2023-06-26T10:22:29;4.45;;;3.83;;
1567;SDS011;777;47.156;8.326;2023-06-26T10:25:01;7.00;;;4.30;;
1567;SDS011;777;47.156;8.326;2023-06-26T10:27:35;4.65;;;4.18;;
1567;SDS011;777;47.156;8.326;2023-06-26T10:30:06;6.35;;;4.15;;
1567;SDS011;777;47.156;8.326;2023-06-26T10:32:37;5.43;;;4.82;;
1567;SDS011;777;47.156;8.326;2023-06-26T10:35:06;6.70;;;4.60;;
1567;SDS011;777;47.156;8.326;2023-06-26T10:37:43;6.50;;;4.40;;
1567;SDS011;777;47.156;8.326;2023-06-26T10:40:11;4.25;;;3.85;;
1567;SDS011;777;47.156;8.326;2023-06-26T10:42:40;5.53;;;4.45;;
1567;SDS011;777;47.156;8.326;2023-06-26T10:45:10;5.45;;;4.65;;
1567;SDS011;777;47.156;8.326;2023-06-26T10:47:40;5.15;;;4.65;;
1567;SDS011;777;47.156;8.326;2023-06-26T10:50:18;4.82;;;4.43;;
1567;SDS011;777;47.156;8.326;2023-06-26T10:53:08;4.95;;;4.53;;
1567;SDS011;777;47.156;8.326;2023-06-26T10:55:37;6.60;;;4.55;;
1567;SDS011;777;47.156;8.326;2023-06-26T10:58:17;5.15;;;4.38;;
1567;SDS011;777;47.156;8.326;2023-06-26T11:03:47;5.38;;;4.55;;
1567;SDS011;777;47.156;8.326;2023-06-26T11:06:17;6.13;;;4.15;;
1567;SDS011;777;47.156;8.326;2023-06-26T11:08:45;6.13;;;4.00;;
1567;SDS011;777;47.156;8.326;2023-06-26T11:11:13;5.43;;;4.20;;
1567;SDS011;777;47.156;8.326;2023-06-26T11:13:41;4.70;;;4.30;;
1567;SDS011;777;47.156;8.326;2023-06-26T11:16:11;7.22;;;4.60;;
1567;SDS011;777;47.156;8.326;2023-06-26T11:18:39;6.13;;;4.45;;
1567;SDS011;777;47.156;8.326;2023-06-26T11:21:07;10.15;;;5.47;;
1567;SDS011;777;47.156;8.326;2023-06-26T11:23:35;5.13;;;4.63;;
1567;SDS011;777;47.156;8.326;2023-06-26T11:26:15;4.85;;;4.35;;
1567;SDS011;777;47.156;8.326;2023-06-26T11:28:48;5.85;;;4.45;;
1567;SDS011;777;47.156;8.326;2023-06-26T11:31:25;4.70;;;4.30;;
1567;SDS011;777;47.156;8.326;2023-06-26T11:33:53;5.07;;;4.55;;
1567;SDS011;777;47.156;8.326;2023-06-26T11:36:22;4.70;;;4.18;;
1567;SDS011;777;47.156;8.326;2023-06-26T11:38:54;4.60;;;4.20;;
1567;SDS011;777;47.156;8.326;2023-06-26T11:41:21;4.97;;;4.55;;
1567;SDS011;777;47.156;8.326;2023-06-26T11:43:50;5.38;;;4.47;;
1567;SDS011;777;47.156;8.326;2023-06-26T11:46:19;5.35;;;4.80;;
1567;SDS011;777;47.156;8.326;2023-06-26T11:48:47;6.05;;;4.20;;
1567;SDS011;777;47.156;8.326;2023-06-26T11:51:14;5.45;;;4.95;;
1567;SDS011;777;47.156;8.326;2023-06-26T11:53:43;5.03;;;4.50;;
1567;SDS011;777;47.156;8.326;2023-06-26T12:01:29;7.20;;;4.82;;
1567;SDS011;777;47.156;8.326;2023-06-26T12:03:58;5.05;;;4.55;;
1567;SDS011;777;47.156;8.326;2023-06-26T12:06:26;4.95;;;4.30;;
1567;SDS011;777;47.156;8.326;2023-06-26T12:08:54;5.07;;;4.60;;
1567;SDS011;777;47.156;8.326;2023-06-26T12:11:22;6.35;;;4.72;;
1567;SDS011;777;47.156;8.326;2023-06-26T12:13:50;6.50;;;5.13;;
1567;SDS011;777;47.156;8.326;2023-06-26T12:16:19;6.97;;;5.00;;
1567;SDS011;777;47.156;8.326;2023-06-26T12:18:46;7.20;;;4.60;;
1567;SDS011;777;47.156;8.326;2023-06-26T12:21:44;4.68;;;4.28;;
1567;SDS011;777;47.156;8.326;2023-06-26T12:24:14;7.05;;;4.93;;
1567;SDS011;777;47.156;8.326;2023-06-26T12:26:42;6.13;;;4.72;;
1567;SDS011;777;47.156;8.326;2023-06-26T12:29:11;5.50;;;4.80;;
1567;SDS011;777;47.156;8.326;2023-06-26T12:31:43;5.25;;;4.32;;
1567;SDS011;777;47.156;8.326;2023-06-26T12:34:12;5.13;;;4.63;;
1567;SDS011;777;47.156;8.326;2023-06-26T12:36:43;6.82;;;4.68;;
1567;SDS011;777;47.156;8.326;2023-06-26T12:39:12;6.70;;;4.70;;
1567;SDS011;777;47.156;8.326;2023-06-26T12:41:51;9.23;;;4.97;;
1567;SDS011;777;47.156;8.326;2023-06-26T12:44:20;7.20;;;4.93;;
1567;SDS011;777;47.156;8.326;2023-06-26T12:46:49;7.38;;;4.65;;
1567;SDS011;777;47.156;8.326;2023-06-26T12:49:20;12.00;;;5.18;;
1567;SDS011;777;47.156;8.326;2023-06-26T12:51:55;9.15;;;5.13;;
1567;SDS011;777;47.156;8.326;2023-06-26T12:54:23;9.55;;;5.00;;
1567;SDS011;777;47.156;8.326;2023-06-26T12:56:50;13.20;;;4.93;;
1567;SDS011;777;47.156;8.326;2023-06-26T12:59:17;7.47;;;4.97;;
1567;SDS011;777;47.156;8.326;2023-06-26T13:01:45;8.70;;;5.10;;
1567;SDS011;777;47.156;8.326;2023-06-26T13:04:13;6.25;;;4.82;;
1567;SDS011;777;47.156;8.326;2023-06-26T13:06:40;9.70;;;4.95;;
1567;SDS011;777;47.156;8.326;2023-06-26T13:09:07;5.63;;;4.65;;
1567;SDS011;777;47.156;8.326;2023-06-26T13:11:36;4.60;;;4.20;;
1567;SDS011;777;47.156;8.326;2023-06-26T13:14:03;5.60;;;4.10;;
1567;SDS011;777;47.156;8.326;2023-06-26T13:16:30;6.00;;;3.95;;
1567;SDS011;777;47.156;8.326;2023-06-26T13:18:57;6.80;;;4.50;;
1567;SDS011;777;47.156;8.326;2023-06-26T13:21:27;5.95;;;4.40;;
1567;SDS011;777;47.156;8.326;2023-06-26T13:23:54;4.90;;;4.43;;
1567;SDS011;777;47.156;8.326;2023-06-26T13:26:21;4.75;;;4.35;;
1567;SDS011;777;47.156;8.326;2023-06-26T13:28:50;5.10;;;4.00;;
1567;SDS011;777;47.156;8.326;2023-06-26T13:31:17;5.53;;;3.92;;
1567;SDS011;777;47.156;8.326;2023-06-26T13:33:44;10.50;;;4.03;;
1567;SDS011;777;47.156;8.326;2023-06-26T13:36:14;7.22;;;3.83;;
1567;SDS011;777;47.156;8.326;2023-06-26T13:38:43;6.70;;;4.20;;
1567;SDS011;777;47.156;8.326;2023-06-26T13:41:10;5.18;;;4.30;;
1567;SDS011;777;47.156;8.326;2023-06-26T13:43:37;5.28;;;3.75;;
1567;SDS011;777;47.156;8.326;2023-06-26T13:46:04;4.65;;;3.85;;
1567;SDS011;777;47.156;8.326;2023-06-26T13:48:31;8.85;;;3.83;;
1567;SDS011;777;47.156;8.326;2023-06-26T13:50:58;5.90;;;3.78;;
1567;SDS011;777;47.156;8.326;2023-06-26T13:53:26;4.70;;;3.92;;
1567;SDS011;777;47.156;8.326;2023-06-26T13:55:54;5.75;;;3.85;;
1567;SDS011;777;47.156;8.326;2023-06-26T13:58:21;6.55;;;3.58;;
1567;SDS011;777;47.156;8.326;2023-06-26T14:00:52;4.57;;;3.53;;
1567;SDS011;777;47.156;8.326;2023-06-26T14:03:19;5.30;;;3.15;;
1567;SDS011;777;47.156;8.326;2023-06-26T14:05:46;3.50;;;3.20;;
1567;SDS011;777;47.156;8.326;2023-06-26T14:08:13;4.55;;;3.70;;
1567;SDS011;777;47.156;8.326;2023-06-26T14:10:40;4.57;;;3.80;;
1567;SDS011;777;47.156;8.326;2023-06-26T14:13:09;4.68;;;3.63;;
1567;SDS011;777;47.156;8.326;2023-06-26T14:15:37;4.93;;;3.55;;
1567;SDS011;777;47.156;8.326;2023-06-26T14:18:05;4.18;;;3.20;;
1567;SDS011;777;47.156;8.326;2023-06-26T14:20:32;4.53;;;3.45;;
1567;SDS011;777;47.156;8.326;2023-06-26T14:23:01;3.42;;;3.08;;
1567;SDS011;777;47.156;8.326;2023-06-26T14:25:28;5.38;;;3.33;;
1567;SDS011;777;47.156;8.326;2023-06-26T14:27:55;3.88;;;3.20;;
1567;SDS011;777;47.156;8.326;2023-06-26T14:30:24;3.70;;;3.22;;
1567;SDS011;777;47.156;8.326;2023-06-26T14:32:51;3.72;;;3.15;;
1567;SDS011;777;47.156;8.326;2023-06-26T14:35:18;3.40;;;3.10;;
1567;SDS011;777;47.156;8.326;2023-06-26T14:37:45;3.10;;;2.90;;
1567;SDS011;777;47.156;8.326;2023-06-26T14:40:14;4.45;;;3.22;;
1567;SDS011;777;47.156;8.326;2023-06-26T14:42:41;3.55;;;3.25;;
1567;SDS011;777;47.156;8.326;2023-06-26T14:45:10;5.75;;;3.35;;
1567;SDS011;777;47.156;8.326;2023-06-26T14:47:39;3.80;;;3.50;;
1567;SDS011;777;47.156;8.326;2023-06-26T14:50:07;4.40;;;3.53;;
1567;SDS011;777;47.156;8.326;2023-06-26T14:52:35;4.72;;;3.65;;
1567;SDS011;777;47.156;8.326;2023-06-26T14:55:02;4.57;;;3.70;;
1567;SDS011;777;47.156;8.326;2023-06-26T14:57:29;3.72;;;3.42;;
1567;SDS011;777;47.156;8.326;2023-06-26T14:59:56;5.43;;;3.40;;
1567;SDS011;777;47.156;8.326;2023-06-26T15:02:23;4.45;;;3.60;;
1567;SDS011;777;47.156;8.326;2023-06-26T15:04:52;4.63;;;3.50;;
1567;SDS011;777;47.156;8.326;2023-06-26T15:07:19;4.47;;;3.85;;
1567;SDS011;777;47.156;8.326;2023-06-26T15:09:45;4.25;;;3.70;;
1567;SDS011;777;47.156;8.326;2023-06-26T15:12:12;5.63;;;3.90;;
1567;SDS011;777;47.156;8.326;2023-06-26T15:14:39;5.72;;;3.92;;
1567;SDS011;777;47.156;8.326;2023-06-26T15:17:06;6.90;;;4.32;;
1567;SDS011;777;47.156;8.326;2023-06-26T15:19:33;5.00;;;3.53;;
1567;SDS011;777;47.156;8.326;2023-06-26T15:22:02;4.97;;;3.63;;
1567;SDS011;777;47.156;8.326;2023-06-26T15:24:29;4.07;;;3.67;;
1567;SDS011;777;47.156;8.326;2023-06-26T15:26:56;3.90;;;3.50;;
1567;SDS011;777;47.156;8.326;2023-06-26T15:29:23;4.82;;;3.75;;
1567;SDS011;777;47.156;8.326;2023-06-26T15:31:50;6.55;;;3.72;;
1567;SDS011;777;47.156;8.326;2023-06-26T15:34:18;5.00;;;3.65;;
1567;SDS011;777;47.156;8.326;2023-06-26T15:36:45;7.25;;;3.90;;
1567;SDS011;777;47.156;8.326;2023-06-26T15:39:13;3.67;;;3.35;;
1567;SDS011;777;47.156;8.326;2023-06-26T15:41:40;3.85;;;3.35;;